Peotone Weather

Nearby METAR Reports

 

KIGQ - Lansing, Illinois, USA
Distance from station: NE 19mi, 30km
Updated: Sun, 26-May-2019 7:55am CDT
Light rain, Overcast
Light rain, Overcast
 Wind from W
Wind: W 12 mph , 19 km/h
Temperature: 66°F , 19°C
Dew Point: 64°F , 18°C
Humidity: 94%
Barometer: 30.04 inHg , 1017.3 hPa
Summary: Light rain
Clouds: Overcast
Visibility: 10 miles , 16 km
Cloud details: Overcast 9500 ft
2019/05/26 12:55 KIGQ 261255Z AUTO 27010KT 10SM -RA OVC095 19/18 A3004 RMK AO2 T01900176
KIKK - Kankakee, Illinois, USA
Distance from station: S 19mi, 30km
Updated: Sun, 26-May-2019 7:55am CDT
Overcast
Overcast
 Wind from W
Wind: W 6 mph , 9 km/h
Temperature: 66°F , 19°C
Dew Point: 63°F , 17°C
Humidity: 88%
Barometer: 30.05 inHg , 1017.6 hPa
Clouds: Overcast
Visibility: 10 miles , 16 km
Cloud details: Partly cloudy 4000 ft
Partly cloudy 5500 ft
Overcast 11000 ft
2019/05/26 12:55 KIKK 261255Z AUTO 27005KT 10SM SCT040 SCT055 OVC110 19/17 A3005 RMK AO2 P0001 T01880171
 
KSJC - Joliet, Illinois, USA
Distance from station: WNW 24mi, 38km
Updated: Sun, 26-May-2019 7:53am CDT
Mostly cloudy
Mostly cloudy
 Wind from W
Wind: W 8 mph , 13 km/h
Temperature: 54°F , 12°C
Dew Point: 46°F , 8°C
Humidity: 77%
Barometer: 29.80 inHg , 1009.1 hPa
Clouds: Mostly cloudy
Visibility: 10 miles , 16 km
Cloud details: Few Clouds 1200 ft
Partly cloudy 3000 ft
Mostly cloudy 11000 ft
2019/05/26 12:53 KSJC 261253Z 27007KT 10SM FEW012 SCT030 BKN110 12/08 A2980 RMK AO2 SLP089 T01170083
KLOT - Romeoville, Illinois, USA
Distance from station: NW 26mi, 41km
Updated: Sun, 26-May-2019 7:55am CDT
Mostly cloudy
Mostly cloudy
 Wind from W
Wind: W 6 mph , 9 km/h
Temperature: 66°F , 19°C
Dew Point: 64°F , 18°C
Humidity: 94%
Barometer: 30.05 inHg , 1017.6 hPa
Clouds: Mostly cloudy
Visibility: 10 miles , 16 km
Cloud details: Mostly cloudy 1600 ft
2019/05/26 12:55 KLOT 261255Z AUTO 26005KT 10SM BKN016 19/18 A3005 RMK AO2 T01870179
 
KMDW - Midway Airport Chicago, Illinois, USA
Distance from station: N 31mi, 50km
Updated: Sun, 26-May-2019 7:53am CDT
Overcast
Overcast
 Wind from NE
Wind: NE 7 mph , 11 km/h
Temperature: 64°F , 18°C
Dew Point: 55°F , 13°C
Humidity: 73%
Barometer: 30.04 inHg , 1017.3 hPa
Clouds: Overcast
Visibility: 10 miles , 16 km
Cloud details: Mostly cloudy 1600 ft
Mostly cloudy 2100 ft
Overcast 3600 ft
2019/05/26 12:53 KMDW 261253Z 04006KT 10SM BKN016 BKN021 OVC036 18/13 A3004 RMK AO2 RAB18E48 SLP164 P0000 T01830133
KC09 - Morris, Illinois, USA
Distance from station: W 34mi, 54km
Updated: Sun, 26-May-2019 7:55am CDT
Light rain, Partly cloudy
Light rain, Partly cloudy
 Wind from calm
Wind: Calm
Temperature: 66°F , 19°C
Dew Point: 64°F , 18°C
Humidity: 94%
Barometer: 30.04 inHg , 1017.3 hPa
Summary: Light rain
Clouds: Partly cloudy
Visibility: 10 miles , 16 km
Cloud details: Partly cloudy 1200 ft
Partly cloudy 2000 ft
2019/05/26 12:55 KC09 261255Z AUTO 00000KT 10SM -RA SCT012 SCT020 19/18 A3004 RMK AO2 P0001 T01850182

Metar display script from Saratoga-Weather.org